sensor_id;sensor_type;location;lat;lon;timestamp;pressure;altitude;pressure_sealevel;temperature;humidity
42003;BME280;27693;50.506;30.832;2022-08-27T00:00:40;99578.05;;;21.19;51.03
42003;BME280;27693;50.506;30.832;2022-08-27T00:01:43;99581.67;;;21.18;50.94
42003;BME280;27693;50.506;30.832;2022-08-27T00:02:46;99576.38;;;21.18;51.16
42003;BME280;27693;50.506;30.832;2022-08-27T00:03:48;99586.97;;;21.18;51.30
42003;BME280;27693;50.506;30.832;2022-08-27T00:04:50;99574.71;;;21.17;50.93
42003;BME280;27693;50.506;30.832;2022-08-27T00:05:53;99573.19;;;21.15;50.85
42003;BME280;27693;50.506;30.832;2022-08-27T00:06:55;99573.03;;;21.16;51.59
42003;BME280;27693;50.506;30.832;2022-08-27T00:07:59;99573.44;;;21.21;50.86
42003;BME280;27693;50.506;30.832;2022-08-27T00:09:02;99576.38;;;21.18;50.73
42003;BME280;27693;50.506;30.832;2022-08-27T00:10:08;99574.71;;;21.17;50.86
42003;BME280;27693;50.506;30.832;2022-08-27T00:11:11;99576.11;;;21.12;50.89
42003;BME280;27693;50.506;30.832;2022-08-27T00:12:14;99577.78;;;21.13;50.91
42003;BME280;27693;50.506;30.832;2022-08-27T00:13:16;99579.47;;;21.04;51.14
42003;BME280;27693;50.506;30.832;2022-08-27T00:14:19;99580.29;;;21.04;51.23
42003;BME280;27693;50.506;30.832;2022-08-27T00:15:22;99579.47;;;21.04;51.09
42003;BME280;27693;50.506;30.832;2022-08-27T00:16:25;99579.47;;;21.04;51.16
42003;BME280;27693;50.506;30.832;2022-08-27T00:17:29;99583.08;;;21.03;51.12
42003;BME280;27693;50.506;30.832;2022-08-27T00:18:33;99578.34;;;21.06;51.21
42003;BME280;27693;50.506;30.832;2022-08-27T00:19:38;99583.38;;;21.10;50.66
42003;BME280;27693;50.506;30.832;2022-08-27T00:20:41;99588.66;;;21.10;51.01
42003;BME280;27693;50.506;30.832;2022-08-27T00:21:44;99586.69;;;21.12;51.01
42003;BME280;27693;50.506;30.832;2022-08-27T00:22:46;99584.34;;;21.09;50.16
42003;BME280;27693;50.506;30.832;2022-08-27T00:23:48;99585.46;;;21.06;50.19
42003;BME280;27693;50.506;30.832;2022-08-27T00:24:51;99576.55;;;21.07;50.21
42003;BME280;27693;50.506;30.832;2022-08-27T00:25:53;99582.52;;;21.09;50.34
42003;BME280;27693;50.506;30.832;2022-08-27T00:26:56;99579.73;;;21.01;50.10
42003;BME280;27693;50.506;30.832;2022-08-27T00:27:58;99576.98;;;21.02;50.40
42003;BME280;27693;50.506;30.832;2022-08-27T00:29:00;99583.08;;;21.03;50.09
42003;BME280;27693;50.506;30.832;2022-08-27T00:30:06;99572.66;;;21.01;50.30
42003;BME280;27693;50.506;30.832;2022-08-27T00:31:09;99574.45;;;21.01;50.07
42003;BME280;27693;50.506;30.832;2022-08-27T00:32:14;99573.36;;;21.03;50.24
42003;BME280;27693;50.506;30.832;2022-08-27T00:33:17;99574.05;;;20.96;50.11
42003;BME280;27693;50.506;30.832;2022-08-27T00:34:21;99580.19;;;20.96;50.30
42003;BME280;27693;50.506;30.832;2022-08-27T00:35:23;99584.77;;;20.94;50.73
42003;BME280;27693;50.506;30.832;2022-08-27T00:36:27;99587.27;;;20.96;51.14
42003;BME280;27693;50.506;30.832;2022-08-27T00:37:29;99583.66;;;20.97;50.92
42003;BME280;27693;50.506;30.832;2022-08-27T00:38:31;99587.12;;;20.97;51.30
42003;BME280;27693;50.506;30.832;2022-08-27T00:39:34;99583.38;;;21.00;50.63
42003;BME280;27693;50.506;30.832;2022-08-27T00:40:37;99578.91;;;21.00;50.87
42003;BME280;27693;50.506;30.832;2022-08-27T00:41:40;99579.90;;;20.89;50.78
42003;BME280;27693;50.506;30.832;2022-08-27T00:42:42;99575.31;;;20.92;50.92
42003;BME280;27693;50.506;30.832;2022-08-27T00:44:50;99585.33;;;20.98;50.53
42003;BME280;27693;50.506;30.832;2022-08-27T00:45:55;99589.77;;;20.97;50.71
42003;BME280;27693;50.506;30.832;2022-08-27T00:47:06;99582.53;;;20.99;50.87
42003;BME280;27693;50.506;30.832;2022-08-27T00:48:05;99587.00;;;20.99;50.96
42003;BME280;27693;50.506;30.832;2022-08-27T00:50:45;99587.56;;;20.93;50.98
42003;BME280;27693;50.506;30.832;2022-08-27T00:52:04;99582.55;;;20.89;51.08
42003;BME280;27693;50.506;30.832;2022-08-27T00:53:09;99583.52;;;20.88;51.47
42003;BME280;27693;50.506;30.832;2022-08-27T00:54:12;99590.63;;;20.88;51.01
42003;BME280;27693;50.506;30.832;2022-08-27T00:55:20;99578.64;;;20.84;51.18
42003;BME280;27693;50.506;30.832;2022-08-27T00:56:33;99574.05;;;20.96;51.25
42003;BME280;27693;50.506;30.832;2022-08-27T00:57:37;99587.58;;;20.83;51.28
42003;BME280;27693;50.506;30.832;2022-08-27T00:58:43;99579.76;;;20.81;51.22
42003;BME280;27693;50.506;30.832;2022-08-27T00:59:53;99581.42;;;20.92;51.18
42003;BME280;27693;50.506;30.832;2022-08-27T01:01:07;99572.80;;;20.80;51.07
42003;BME280;27693;50.506;30.832;2022-08-27T01:02:11;99577.81;;;20.83;51.57
42003;BME280;27693;50.506;30.832;2022-08-27T01:03:14;99577.55;;;20.86;51.05
42003;BME280;27693;50.506;30.832;2022-08-27T01:04:16;99577.81;;;20.83;51.18
42003;BME280;27693;50.506;30.832;2022-08-27T01:05:21;99583.92;;;20.84;51.26
42003;BME280;27693;50.506;30.832;2022-08-27T01:06:30;99582.14;;;20.84;51.32
42003;BME280;27693;50.506;30.832;2022-08-27T01:07:36;99581.17;;;20.85;51.26
42003;BME280;27693;50.506;30.832;2022-08-27T01:08:44;99575.03;;;20.85;51.58
42003;BME280;27693;50.506;30.832;2022-08-27T01:09:46;99579.49;;;20.84;51.19
42003;BME280;27693;50.506;30.832;2022-08-27T01:10:53;99574.20;;;20.84;51.40
42003;BME280;27693;50.506;30.832;2022-08-27T01:11:59;99574.47;;;20.81;51.38
42003;BME280;27693;50.506;30.832;2022-08-27T01:13:01;99576.45;;;20.79;51.21
42003;BME280;27693;50.506;30.832;2022-08-27T01:14:05;99576.45;;;20.79;51.42
42003;BME280;27693;50.506;30.832;2022-08-27T01:15:10;99579.76;;;20.81;51.19
42003;BME280;27693;50.506;30.832;2022-08-27T01:16:19;99583.11;;;20.83;50.99
42003;BME280;27693;50.506;30.832;2022-08-27T01:17:22;99580.47;;;20.83;51.20
42003;BME280;27693;50.506;30.832;2022-08-27T01:19:53;99581.41;;;21.02;51.50
42003;BME280;27693;50.506;30.832;2022-08-27T01:21:09;99581.84;;;20.87;51.24
42003;BME280;27693;50.506;30.832;2022-08-27T01:23:41;99592.30;;;20.89;51.20
42003;BME280;27693;50.506;30.832;2022-08-27T01:24:45;99584.22;;;20.90;51.19
42003;BME280;27693;50.506;30.832;2022-08-27T01:25:47;99586.86;;;20.90;50.99
42003;BME280;27693;50.506;30.832;2022-08-27T01:26:50;99581.72;;;20.89;51.31
42003;BME280;27693;50.506;30.832;2022-08-27T01:27:55;99582.84;;;20.86;50.90
42003;BME280;27693;50.506;30.832;2022-08-27T01:28:59;99586.14;;;20.69;51.34
42003;BME280;27693;50.506;30.832;2022-08-27T01:30:05;99586.95;;;20.59;51.41
42003;BME280;27693;50.506;30.832;2022-08-27T01:31:10;99586.95;;;20.59;51.41
42003;BME280;27693;50.506;30.832;2022-08-27T01:32:17;99590.30;;;20.62;51.53
42003;BME280;27693;50.506;30.832;2022-08-27T01:33:20;99592.95;;;20.62;51.57
42003;BME280;27693;50.506;30.832;2022-08-27T01:34:22;99593.66;;;20.64;51.40
42003;BME280;27693;50.506;30.832;2022-08-27T01:35:25;99594.36;;;20.66;52.21
42003;BME280;27693;50.506;30.832;2022-08-27T01:36:28;99588.08;;;20.67;51.36
42003;BME280;27693;50.506;30.832;2022-08-27T01:37:31;99585.58;;;20.65;51.54
42003;BME280;27693;50.506;30.832;2022-08-27T01:38:34;99594.21;;;20.67;51.45
42003;BME280;27693;50.506;30.832;2022-08-27T01:39:56;99589.75;;;20.68;51.44
42003;BME280;27693;50.506;30.832;2022-08-27T01:41:01;99597.27;;;20.63;51.31
42003;BME280;27693;50.506;30.832;2022-08-27T01:42:06;99589.59;;;20.59;52.04
42003;BME280;27693;50.506;30.832;2022-08-27T01:43:09;99592.95;;;20.62;52.02
42003;BME280;27693;50.506;30.832;2022-08-27T01:44:12;99591.83;;;20.54;51.63
42003;BME280;27693;50.506;30.832;2022-08-27T01:45:20;99586.12;;;20.49;51.61
42003;BME280;27693;50.506;30.832;2022-08-27T01:46:26;99592.53;;;20.47;51.95
42003;BME280;27693;50.506;30.832;2022-08-27T01:47:29;99596.96;;;20.46;51.82
42003;BME280;27693;50.506;30.832;2022-08-27T01:48:33;99595.31;;;20.45;51.53
42003;BME280;27693;50.506;30.832;2022-08-27T01:49:35;99589.03;;;20.46;51.63
42003;BME280;27693;50.506;30.832;2022-08-27T01:50:39;99584.45;;;20.48;51.27
42003;BME280;27693;50.506;30.832;2022-08-27T01:51:42;99588.77;;;20.49;51.57
42003;BME280;27693;50.506;30.832;2022-08-27T01:52:44;99582.52;;;20.40;51.59
42003;BME280;27693;50.506;30.832;2022-08-27T01:53:47;99586.36;;;20.26;51.67
42003;BME280;27693;50.506;30.832;2022-08-27T01:54:49;99590.27;;;20.22;51.93
42003;BME280;27693;50.506;30.832;2022-08-27T01:55:53;99584.58;;;20.27;51.87
42003;BME280;27693;50.506;30.832;2022-08-27T01:56:56;99584.17;;;20.32;52.20
42003;BME280;27693;50.506;30.832;2022-08-27T01:58:00;99591.55;;;20.38;52.70
42003;BME280;27693;50.506;30.832;2022-08-27T01:59:03;99583.19;;;20.42;51.89
42003;BME280;27693;50.506;30.832;2022-08-27T02:00:10;99588.06;;;20.47;51.84
42003;BME280;27693;50.506;30.832;2022-08-27T02:01:14;99583.07;;;20.44;51.70
42003;BME280;27693;50.506;30.832;2022-08-27T02:02:17;99586.12;;;20.49;52.03
42003;BME280;27693;50.506;30.832;2022-08-27T02:03:19;99578.91;;;20.51;51.83
42003;BME280;27693;50.506;30.832;2022-08-27T02:04:22;99588.63;;;20.51;52.36
42003;BME280;27693;50.506;30.832;2022-08-27T02:05:26;99581.55;;;20.51;52.87
42003;BME280;27693;50.506;30.832;2022-08-27T02:06:29;99577.65;;;20.55;52.30
42003;BME280;27693;50.506;30.832;2022-08-27T02:07:31;99582.78;;;20.57;51.77
42003;BME280;27693;50.506;30.832;2022-08-27T02:08:33;99572.09;;;20.58;51.67
42003;BME280;27693;50.506;30.832;2022-08-27T02:09:36;99579.47;;;20.55;51.87
42003;BME280;27693;50.506;30.832;2022-08-27T02:10:39;99579.47;;;20.45;52.03
42003;BME280;27693;50.506;30.832;2022-08-27T02:11:41;99576.26;;;20.41;52.22
42003;BME280;27693;50.506;30.832;2022-08-27T02:12:45;99578.75;;;20.43;52.10
42003;BME280;27693;50.506;30.832;2022-08-27T02:13:47;99575.41;;;20.41;51.86
42003;BME280;27693;50.506;30.832;2022-08-27T02:14:49;99579.72;;;20.42;51.57
42003;BME280;27693;50.506;30.832;2022-08-27T02:15:52;99573.47;;;20.43;51.93
42003;BME280;27693;50.506;30.832;2022-08-27T02:16:55;99581.95;;;20.47;52.61
42003;BME280;27693;50.506;30.832;2022-08-27T02:17:57;99575.70;;;20.48;51.74
42003;BME280;27693;50.506;30.832;2022-08-27T02:19:00;99575.82;;;20.46;51.74
42003;BME280;27693;50.506;30.832;2022-08-27T02:20:05;99573.06;;;20.48;51.69
42003;BME280;27693;50.506;30.832;2022-08-27T02:21:07;99577.23;;;20.50;51.96
42003;BME280;27693;50.506;30.832;2022-08-27T02:22:09;99575.82;;;20.46;51.68
42003;BME280;27693;50.506;30.832;2022-08-27T02:23:12;99578.75;;;20.43;51.91
42003;BME280;27693;50.506;30.832;2022-08-27T02:24:15;99569.14;;;20.41;51.80
42003;BME280;27693;50.506;30.832;2022-08-27T02:25:18;99569.14;;;20.32;51.22
42003;BME280;27693;50.506;30.832;2022-08-27T02:26:22;99578.34;;;20.38;52.66
42003;BME280;27693;50.506;30.832;2022-08-27T02:27:24;99579.98;;;20.39;51.44
42003;BME280;27693;50.506;30.832;2022-08-27T02:28:27;99579.02;;;20.40;51.66
42003;BME280;27693;50.506;30.832;2022-08-27T02:29:29;99578.34;;;20.38;51.70
42003;BME280;27693;50.506;30.832;2022-08-27T02:30:32;99572.05;;;20.29;51.15
42003;BME280;27693;50.506;30.832;2022-08-27T02:31:35;99568.33;;;20.32;51.61
42003;BME280;27693;50.506;30.832;2022-08-27T02:32:37;99578.83;;;20.12;52.04
42003;BME280;27693;50.506;30.832;2022-08-27T02:33:40;99572.58;;;20.13;52.19
42003;BME280;27693;50.506;30.832;2022-08-27T02:34:44;99576.89;;;20.14;51.99
42003;BME280;27693;50.506;30.832;2022-08-27T02:35:48;99572.58;;;20.13;52.00
42003;BME280;27693;50.506;30.832;2022-08-27T02:36:50;99568.81;;;20.06;52.24
42003;BME280;27693;50.506;30.832;2022-08-27T02:37:52;99567.13;;;20.05;52.20
42003;BME280;27693;50.506;30.832;2022-08-27T02:38:55;99575.77;;;20.07;52.37
42003;BME280;27693;50.506;30.832;2022-08-27T02:39:57;99567.98;;;20.05;52.40
42003;BME280;27693;50.506;30.832;2022-08-27T02:40:59;99569.64;;;19.97;52.75
42003;BME280;27693;50.506;30.832;2022-08-27T02:42:02;99568.38;;;20.01;53.55
42003;BME280;27693;50.506;30.832;2022-08-27T02:43:05;99567.42;;;20.02;52.92
42003;BME280;27693;50.506;30.832;2022-08-27T02:44:07;99570.77;;;20.04;52.58
42003;BME280;27693;50.506;30.832;2022-08-27T02:45:13;99571.34;;;20.07;52.85
42003;BME280;27693;50.506;30.832;2022-08-27T02:46:17;99566.31;;;20.04;52.63
42003;BME280;27693;50.506;30.832;2022-08-27T02:47:19;99566.87;;;20.08;53.15
42003;BME280;27693;50.506;30.832;2022-08-27T02:48:22;99570.64;;;20.15;52.70
42003;BME280;27693;50.506;30.832;2022-08-27T02:49:24;99578.28;;;20.18;52.22
42003;BME280;27693;50.506;30.832;2022-08-27T02:50:27;99566.63;;;20.21;52.16
42003;BME280;27693;50.506;30.832;2022-08-27T02:51:29;99569.84;;;20.24;52.38
42003;BME280;27693;50.506;30.832;2022-08-27T02:52:31;99571.23;;;20.29;53.64
42003;BME280;27693;50.506;30.832;2022-08-27T02:53:35;99573.61;;;20.32;52.94
42003;BME280;27693;50.506;30.832;2022-08-27T02:54:38;99569.42;;;20.39;52.91
42003;BME280;27693;50.506;30.832;2022-08-27T02:55:40;99575.82;;;20.46;52.20
42003;BME280;27693;50.506;30.832;2022-08-27T02:56:43;99574.73;;;20.49;51.99
42003;BME280;27693;50.506;30.832;2022-08-27T02:57:45;99569.31;;;20.50;51.85
42003;BME280;27693;50.506;30.832;2022-08-27T02:58:47;99574.59;;;20.50;51.52
42003;BME280;27693;50.506;30.832;2022-08-27T02:59:51;99579.47;;;20.45;51.63
42003;BME280;27693;50.506;30.832;2022-08-27T03:00:54;99570.83;;;20.43;51.96
42003;BME280;27693;50.506;30.832;2022-08-27T03:01:56;99567.06;;;20.36;52.23
42003;BME280;27693;50.506;30.832;2022-08-27T03:03:00;99573.06;;;20.38;52.04
42003;BME280;27693;50.506;30.832;2022-08-27T03:04:03;99565.23;;;20.26;52.19
42003;BME280;27693;50.506;30.832;2022-08-27T03:05:06;99571.21;;;20.19;52.53
42003;BME280;27693;50.506;30.832;2022-08-27T03:06:09;99564.66;;;20.13;52.71
42003;BME280;27693;50.506;30.832;2022-08-27T03:07:12;99560.48;;;20.10;53.34
42003;BME280;27693;50.506;30.832;2022-08-27T03:08:17;99566.33;;;20.14;53.22
42003;BME280;27693;50.506;30.832;2022-08-27T03:09:20;99561.47;;;20.19;52.66
42003;BME280;27693;50.506;30.832;2022-08-27T03:10:22;99559.68;;;20.20;53.01
42003;BME280;27693;50.506;30.832;2022-08-27T03:11:24;99566.34;;;20.24;52.50
42003;BME280;27693;50.506;30.832;2022-08-27T03:12:27;99568.84;;;20.25;52.76
42003;BME280;27693;50.506;30.832;2022-08-27T03:13:29;99566.09;;;20.27;53.62
42003;BME280;27693;50.506;30.832;2022-08-27T03:14:31;99566.36;;;20.34;52.47
42003;BME280;27693;50.506;30.832;2022-08-27T03:15:34;99566.77;;;20.39;52.22
42003;BME280;27693;50.506;30.832;2022-08-27T03:16:37;99569.16;;;20.42;52.57
42003;BME280;27693;50.506;30.832;2022-08-27T03:17:40;99565.55;;;20.43;52.52
42003;BME280;27693;50.506;30.832;2022-08-27T03:18:44;99562.61;;;20.46;52.25
42003;BME280;27693;50.506;30.832;2022-08-27T03:19:46;99570.27;;;20.49;52.88
42003;BME280;27693;50.506;30.832;2022-08-27T03:20:51;99568.59;;;20.38;52.34
42003;BME280;27693;50.506;30.832;2022-08-27T03:21:54;99562.75;;;20.35;52.61
42003;BME280;27693;50.506;30.832;2022-08-27T03:22:56;99573.06;;;20.38;52.71
42003;BME280;27693;50.506;30.832;2022-08-27T03:23:59;99564.42;;;20.36;52.35
42003;BME280;27693;50.506;30.832;2022-08-27T03:25:04;99564.42;;;20.36;52.42
42003;BME280;27693;50.506;30.832;2022-08-27T03:26:10;99566.36;;;20.34;52.47
42003;BME280;27693;50.506;30.832;2022-08-27T03:27:13;99563.04;;;20.32;52.71
42003;BME280;27693;50.506;30.832;2022-08-27T03:28:16;99560.09;;;20.25;52.65
42003;BME280;27693;50.506;30.832;2022-08-27T03:29:20;99554.36;;;20.00;53.27
42003;BME280;27693;50.506;30.832;2022-08-27T03:30:24;99558.22;;;19.96;53.59
42003;BME280;27693;50.506;30.832;2022-08-27T03:31:27;99553.17;;;19.83;54.11
42003;BME280;27693;50.506;30.832;2022-08-27T03:32:30;99553.17;;;19.83;54.11
42003;BME280;27693;50.506;30.832;2022-08-27T03:33:35;99552.66;;;19.89;53.91
42003;BME280;27693;50.506;30.832;2022-08-27T03:34:39;99558.34;;;19.85;54.13
42003;BME280;27693;50.506;30.832;2022-08-27T03:35:41;99561.55;;;19.88;54.22
42003;BME280;27693;50.506;30.832;2022-08-27T03:36:43;99553.34;;;19.91;54.01
42003;BME280;27693;50.506;30.832;2022-08-27T03:37:48;99567.08;;;19.85;54.10
42003;BME280;27693;50.506;30.832;2022-08-27T03:38:50;99560.13;;;19.84;54.75
42003;BME280;27693;50.506;30.832;2022-08-27T03:39:52;99560.98;;;19.85;54.21
42003;BME280;27693;50.506;30.832;2022-08-27T03:40:55;99555.70;;;19.85;54.29
42003;BME280;27693;50.506;30.832;2022-08-27T03:41:57;99554.34;;;19.90;54.14
42003;BME280;27693;50.506;30.832;2022-08-27T03:42:59;99557.41;;;19.95;54.09
42003;BME280;27693;50.506;30.832;2022-08-27T03:44:02;99562.28;;;20.00;54.63
42003;BME280;27693;50.506;30.832;2022-08-27T03:45:06;99562.14;;;20.02;54.04
42003;BME280;27693;50.506;30.832;2022-08-27T03:46:09;99558.39;;;20.04;53.93
42003;BME280;27693;50.506;30.832;2022-08-27T03:47:12;99562.56;;;20.07;53.86
42003;BME280;27693;50.506;30.832;2022-08-27T03:48:16;99563.92;;;20.01;54.14
42003;BME280;27693;50.506;30.832;2022-08-27T03:49:20;99563.81;;;20.03;54.11
42003;BME280;27693;50.506;30.832;2022-08-27T03:50:24;99561.28;;;20.01;54.22
42003;BME280;27693;50.506;30.832;2022-08-27T03:51:27;99561.01;;;19.94;54.33
42003;BME280;27693;50.506;30.832;2022-08-27T03:52:29;99559.16;;;19.85;54.64
42003;BME280;27693;50.506;30.832;2022-08-27T03:53:33;99552.91;;;19.86;54.61
42003;BME280;27693;50.506;30.832;2022-08-27T03:54:38;99550.70;;;19.91;54.62
42003;BME280;27693;50.506;30.832;2022-08-27T03:55:40;99559.62;;;19.90;54.66
42003;BME280;27693;50.506;30.832;2022-08-27T03:56:43;99553.09;;;19.94;54.58
42003;BME280;27693;50.506;30.832;2022-08-27T03:57:46;99557.11;;;19.99;54.60
42003;BME280;27693;50.506;30.832;2022-08-27T03:58:49;99553.11;;;20.04;54.56
42003;BME280;27693;50.506;30.832;2022-08-27T03:59:51;99542.97;;;20.09;54.33
42003;BME280;27693;50.506;30.832;2022-08-27T04:00:55;99550.33;;;20.06;54.39
42003;BME280;27693;50.506;30.832;2022-08-27T04:01:57;99549.36;;;20.07;54.42
42003;BME280;27693;50.506;30.832;2022-08-27T04:03:01;99542.41;;;20.06;54.54
42003;BME280;27693;50.506;30.832;2022-08-27T04:04:05;99545.75;;;20.08;54.60
42003;BME280;27693;50.506;30.832;2022-08-27T04:05:09;99549.92;;;20.10;54.55
42003;BME280;27693;50.506;30.832;2022-08-27T04:06:12;99553.53;;;20.09;54.58
42003;BME280;27693;50.506;30.832;2022-08-27T04:07:14;99544.08;;;20.07;54.67
42003;BME280;27693;50.506;30.832;2022-08-27T04:08:17;99546.86;;;20.05;54.76
42003;BME280;27693;50.506;30.832;2022-08-27T04:09:19;99546.72;;;20.07;54.79
42003;BME280;27693;50.506;30.832;2022-08-27T04:10:22;99549.77;;;20.12;54.70
42003;BME280;27693;50.506;30.832;2022-08-27T04:11:24;99550.21;;;20.07;54.71
42003;BME280;27693;50.506;30.832;2022-08-27T04:12:26;99546.17;;;20.13;54.63
42003;BME280;27693;50.506;30.832;2022-08-27T04:13:30;99549.09;;;20.10;54.74
42003;BME280;27693;50.506;30.832;2022-08-27T04:14:32;99550.48;;;20.14;54.64
42003;BME280;27693;50.506;30.832;2022-08-27T04:15:35;99547.13;;;20.12;54.70
42003;BME280;27693;50.506;30.832;2022-08-27T04:16:39;99543.53;;;20.13;54.74
42003;BME280;27693;50.506;30.832;2022-08-27T04:17:42;99543.81;;;20.10;54.97
42003;BME280;27693;50.506;30.832;2022-08-27T04:18:44;99544.37;;;20.14;54.81
42003;BME280;27693;50.506;30.832;2022-08-27T04:19:46;99543.95;;;20.18;54.71
42003;BME280;27693;50.506;30.832;2022-08-27T04:20:49;99545.20;;;20.14;54.75
42003;BME280;27693;50.506;30.832;2022-08-27T04:21:52;99547.30;;;20.20;54.70
42003;BME280;27693;50.506;30.832;2022-08-27T04:22:56;99549.11;;;20.20;54.78
42003;BME280;27693;50.506;30.832;2022-08-27T04:23:58;99547.59;;;20.17;54.93
42003;BME280;27693;50.506;30.832;2022-08-27T04:25:02;99544.39;;;20.23;54.79
42003;BME280;27693;50.506;30.832;2022-08-27T04:26:09;99551.35;;;20.24;54.62
42003;BME280;27693;50.506;30.832;2022-08-27T04:27:12;99546.88;;;20.15;54.74
42003;BME280;27693;50.506;30.832;2022-08-27T04:28:15;99545.77;;;20.18;54.65
42003;BME280;27693;50.506;30.832;2022-08-27T04:29:17;99548.00;;;20.22;54.62
42003;BME280;27693;50.506;30.832;2022-08-27T04:30:20;99547.84;;;20.14;54.87
42003;BME280;27693;50.506;30.832;2022-08-27T04:31:23;99544.39;;;20.23;54.64
42003;BME280;27693;50.506;30.832;2022-08-27T04:32:27;99545.77;;;20.27;54.49
42003;BME280;27693;50.506;30.832;2022-08-27T04:33:30;99545.77;;;20.27;54.45
42003;BME280;27693;50.506;30.832;2022-08-27T04:34:33;99545.62;;;20.19;54.60
42003;BME280;27693;50.506;30.832;2022-08-27T04:35:35;99541.05;;;20.21;54.66
42003;BME280;27693;50.506;30.832;2022-08-27T04:36:38;99537.14;;;20.25;54.45
42003;BME280;27693;50.506;30.832;2022-08-27T04:37:40;99532.98;;;20.23;54.46
42003;BME280;27693;50.506;30.832;2022-08-27T04:38:42;99538.66;;;20.18;54.75
42003;BME280;27693;50.506;30.832;2022-08-27T04:39:45;99539.79;;;20.25;54.79
42003;BME280;27693;50.506;30.832;2022-08-27T04:40:49;99532.16;;;20.32;54.59
42003;BME280;27693;50.506;30.832;2022-08-27T04:41:53;99541.46;;;20.26;54.74
42003;BME280;27693;50.506;30.832;2022-08-27T04:42:55;99539.79;;;20.25;54.59
42003;BME280;27693;50.506;30.832;2022-08-27T04:44:06;99533.12;;;20.31;54.57
42003;BME280;27693;50.506;30.832;2022-08-27T04:45:10;99537.86;;;20.37;54.42
42003;BME280;27693;50.506;30.832;2022-08-27T04:46:12;99531.04;;;20.25;54.63
42003;BME280;27693;50.506;30.832;2022-08-27T04:47:15;99530.78;;;20.28;54.90
42003;BME280;27693;50.506;30.832;2022-08-27T04:48:17;99535.21;;;20.27;54.97
42003;BME280;27693;50.506;30.832;2022-08-27T04:49:20;99531.34;;;20.32;54.89
42003;BME280;27693;50.506;30.832;2022-08-27T04:50:22;99528.41;;;20.35;54.74
42003;BME280;27693;50.506;30.832;2022-08-27T04:51:28;99523.83;;;20.37;54.70
42003;BME280;27693;50.506;30.832;2022-08-27T04:52:30;99528.55;;;20.43;54.55
42003;BME280;27693;50.506;30.832;2022-08-27T04:53:33;99523.98;;;20.45;54.69
42003;BME280;27693;50.506;30.832;2022-08-27T04:54:36;99531.20;;;20.43;54.70
42003;BME280;27693;50.506;30.832;2022-08-27T04:55:50;99528.27;;;20.46;54.70
42003;BME280;27693;50.506;30.832;2022-08-27T04:56:53;99519.78;;;20.42;55.06
42003;BME280;27693;50.506;30.832;2022-08-27T04:57:56;99522.15;;;20.55;54.85
42003;BME280;27693;50.506;30.832;2022-08-27T04:58:59;99533.12;;;20.61;54.50
42003;BME280;27693;50.506;30.832;2022-08-27T05:00:03;99530.22;;;20.64;54.51
42003;BME280;27693;50.506;30.832;2022-08-27T05:01:05;99536.74;;;20.59;54.58
42003;BME280;27693;50.506;30.832;2022-08-27T05:02:07;99530.64;;;20.49;54.86
42003;BME280;27693;50.506;30.832;2022-08-27T05:03:10;99530.23;;;20.54;54.83
42003;BME280;27693;50.506;30.832;2022-08-27T05:04:14;99533.28;;;20.59;54.71
42003;BME280;27693;50.506;30.832;2022-08-27T05:05:17;99533.69;;;20.64;54.74
42003;BME280;27693;50.506;30.832;2022-08-27T05:06:21;99535.77;;;20.70;55.06
42003;BME280;27693;50.506;30.832;2022-08-27T05:07:24;99533.30;;;20.79;54.51
42003;BME280;27693;50.506;30.832;2022-08-27T05:08:27;99541.20;;;20.88;54.31
42003;BME280;27693;50.506;30.832;2022-08-27T05:09:29;99539.67;;;20.96;54.27
42003;BME280;27693;50.506;30.832;2022-08-27T05:10:45;99536.60;;;21.00;54.00
42003;BME280;27693;50.506;30.832;2022-08-27T05:11:44;99534.66;;;21.02;53.92
42003;BME280;27693;50.506;30.832;2022-08-27T05:12:48;99543.81;;;21.08;53.81
42003;BME280;27693;50.506;30.832;2022-08-27T05:13:51;99542.57;;;21.12;53.86
42003;BME280;27693;50.506;30.832;2022-08-27T05:14:54;99537.28;;;21.12;53.80
42003;BME280;27693;50.506;30.832;2022-08-27T05:15:58;99545.48;;;21.09;53.92
42003;BME280;27693;50.506;30.832;2022-08-27T05:17:01;99548.13;;;21.09;53.92
42003;BME280;27693;50.506;30.832;2022-08-27T05:18:05;99544.81;;;21.07;53.96
42003;BME280;27693;50.506;30.832;2022-08-27T05:19:10;99546.77;;;21.05;54.09
42003;BME280;27693;50.506;30.832;2022-08-27T05:20:13;99540.50;;;21.06;54.52
42003;BME280;27693;50.506;30.832;2022-08-27T05:22:24;99542.17;;;21.07;54.31
42003;BME280;27693;50.506;30.832;2022-08-27T05:23:27;99543.97;;;21.06;54.44
42003;BME280;27693;50.506;30.832;2022-08-27T05:24:31;99552.05;;;21.05;54.26
42003;BME280;27693;50.506;30.832;2022-08-27T05:25:39;99550.53;;;21.02;54.46
42003;BME280;27693;50.506;30.832;2022-08-27T05:26:42;99548.30;;;20.98;54.51
42003;BME280;27693;50.506;30.832;2022-08-27T05:27:45;99548.02;;;20.91;54.88
42003;BME280;27693;50.506;30.832;2022-08-27T05:28:47;99545.26;;;20.93;54.72
42003;BME280;27693;50.506;30.832;2022-08-27T05:29:50;99546.78;;;20.95;54.63
42003;BME280;27693;50.506;30.832;2022-08-27T05:31:01;99542.05;;;20.99;55.04
42003;BME280;27693;50.506;30.832;2022-08-27T05:31:58;99541.07;;;21.00;54.93
42003;BME280;27693;50.506;30.832;2022-08-27T05:33:00;99539.25;;;21.00;55.01
42003;BME280;27693;50.506;30.832;2022-08-27T05:34:03;99543.42;;;21.03;54.65
42003;BME280;27693;50.506;30.832;2022-08-27T05:35:07;99538.83;;;21.05;54.83
42003;BME280;27693;50.506;30.832;2022-08-27T05:37:32;99541.84;;;21.20;54.75
42003;BME280;27693;50.506;30.832;2022-08-27T05:38:34;99543.81;;;21.08;54.79
42003;BME280;27693;50.506;30.832;2022-08-27T05:39:36;99543.81;;;21.08;54.66
42003;BME280;27693;50.506;30.832;2022-08-27T05:40:40;99535.21;;;21.06;54.92